Flight Track Log - Related Links

Times and Time Zones

All times are in EDT time to prevent confusion due to time zone crossing. See the UPS32 flight status page for this flight to view local times or setup timezone preferences in your user account.

Time Position Orientation Groundspeed Altitude Reporting Facility
EDT Latitude Longitude Course Direction KTS MPH feet Rate Location/Type
Sat 04:58:22 AM 38.1500 -85.7370 165° South 174 200 1,100  Level FlightAware ADS-B
Sat 04:58:52 AM 38.1230 -85.7360 178° South 217 250 1,500 764 Climbing FlightAware ADS-B
Sat 04:59:17 AM 38.0950 -85.7380 183° South 257 296 1,800 1,418 Climbing FlightAware ADS-B
Sat 04:59:47 AM 38.0600 -85.7520 197° South 265 305 2,800 2,133 Climbing FlightAware ADS-B
Sat 05:00:02 AM 38.0490 -85.7680 229° Southwest 264 304 3,400 2,850 Climbing FlightAware ADS-B
Sat 05:00:27 AM 38.0410 -85.8080 256° West 260 299 4,700 3,055 Climbing FlightAware ADS-B
Sat 05:00:57 AM 38.0390 -85.8500 267° West 258 297 6,200 2,800 Climbing FlightAware ADS-B
Sat 05:01:27 AM 38.0380 -85.8960 268° West 263 303 7,500 2,836 Climbing FlightAware ADS-B
Sat 05:01:52 AM 38.0360 -85.9360 266° West 255 293 8,800 3,086 Climbing FlightAware ADS-B
Sat 05:02:37 AM 38.0320 -86.0020 266° West 245 282 11,100 1,958 Climbing FlightAware ADS-B
Sat 05:03:27 AM 38.0340 -86.0700 272° West 250 288 11,900 533 Climbing FlightAware ADS-B
Sat 05:04:07 AM 38.0380 -86.1190 276° West 250 288 11,900 1,867 Level FlightAware ADS-B
Sat 05:04:57 AM 38.0600 -86.2270 285° West 338 389 14,700 2,533 Climbing FlightAware ADS-B
Sat 05:05:37 AM 38.0700 -86.3120 279° West 368 423 15,700 1,950 Climbing FlightAware ADS-B
Sat 05:06:17 AM 38.0830 -86.3970 281° West 375 432 17,300 1,976 Climbing FlightAware ADS-B
Sat 05:07:02 AM 38.0990 -86.4980 281° West 389 448 18,500 1,624 Climbing FlightAware ADS-B
Sat 05:07:42 AM 38.1140 -86.5860 282° West 394 453 19,600 1,425 Climbing FlightAware ADS-B
Sat 05:08:22 AM 38.1270 -86.6780 280° West 403 464 20,400 1,412 Climbing FlightAware ADS-B
Sat 05:09:07 AM 38.1420 -86.7840 280° West 408 470 21,600 1,412 Climbing FlightAware ADS-B
Sat 05:09:47 AM 38.1560 -86.8790 281° West 416 479 22,400 1,412 Climbing FlightAware ADS-B
Sat 05:10:32 AM 38.1720 -86.9930 280° West 417 480 23,600 1,412 Climbing FlightAware ADS-B
Sat 05:11:12 AM 38.1860 -87.0870 281° West 421 484 24,400 1,575 Climbing FlightAware ADS-B
Sat 05:11:52 AM 38.2000 -87.1870 280° West 416 479 25,700 1,835 Climbing FlightAware ADS-B
Sat 05:12:37 AM 38.2150 -87.2920 280° West 411 473 27,000 1,482 Climbing FlightAware ADS-B
Sat 05:13:17 AM 38.2270 -87.3850 279° West 411 473 27,800 1,341 Climbing FlightAware ADS-B
Sat 05:14:02 AM 38.2430 -87.4970 280° West 409 471 28,900 1,271 Climbing FlightAware ADS-B
Sat 05:14:42 AM 38.2550 -87.5870 280° West 409 471 29,600 825 Climbing FlightAware ADS-B
Sat 05:15:22 AM 38.2680 -87.6860 280° West 409 471 30,000 282 Climbing FlightAware ADS-B
Sat 05:16:07 AM 38.2820 -87.7890 280° West 410 472 30,000  Level FlightAware ADS-B
Sat 05:16:47 AM 38.2950 -87.8860 280° West 409 471 30,000  Level FlightAware ADS-B
Sat 05:17:32 AM 38.3090 -87.9880 280° West 411 473 30,000  Level FlightAware ADS-B
Sat 05:18:12 AM 38.3220 -88.0910 279° West 412 474 30,000  Level FlightAware ADS-B
Sat 05:18:52 AM 38.3350 -88.1870 280° West 412 474 30,000  Level FlightAware ADS-B
Sat 05:19:37 AM 38.3480 -88.2900 279° West 412 474 30,000  Level FlightAware ADS-B
Sat 05:20:17 AM 38.3610 -88.3860 280° West 412 474 30,000  Level FlightAware ADS-B
Sat 05:21:02 AM 38.3750 -88.4950 279° West 421 484 30,000  Level FlightAware ADS-B
Sat 05:21:42 AM 38.3880 -88.5950 279° West 417 480 30,000  Level FlightAware ADS-B
Sat 05:22:22 AM 38.4000 -88.6920 279° West 416 479 30,000  Level FlightAware ADS-B
Sat 05:23:07 AM 38.4130 -88.8010 279° West 421 484 30,000  Level FlightAware ADS-B
Sat 05:23:47 AM 38.4250 -88.8990 279° West 419 482 30,000  Level FlightAware ADS-B
Sat 05:24:32 AM 38.4400 -89.0110 280° West 420 483 30,000  Level FlightAware ADS-B
Sat 05:25:12 AM 38.4520 -89.1060 279° West 418 481 30,000  Level FlightAware ADS-B
Sat 05:25:57 AM 38.4650 -89.2160 279° West 418 481 30,000  Level FlightAware ADS-B
Sat 05:26:37 AM 38.4770 -89.3140 279° West 419 482 30,000  Level FlightAware ADS-B
Sat 05:27:17 AM 38.4880 -89.4120 278° West 421 484 30,000  Level FlightAware ADS-B
Sat 05:27:57 AM 38.5000 -89.5100 279° West 421 484 30,000  Level FlightAware ADS-B
Sat 05:28:42 AM 38.5130 -89.6190 279° West 421 484 30,000  Level FlightAware ADS-B
Sat 05:29:22 AM 38.5250 -89.7220 279° West 421 484 30,000  Level FlightAware ADS-B
Sat 05:30:07 AM 38.5370 -89.8280 278° West 423 487 30,000  Level FlightAware ADS-B
Sat 05:30:47 AM 38.5490 -89.9270 279° West 423 487 30,000  Level FlightAware ADS-B
Sat 05:31:27 AM 38.5600 -90.0280 278° West 424 488 30,000  Level FlightAware ADS-B
Sat 05:32:12 AM 38.5730 -90.1400 278° West 425 489 30,000  Level FlightAware ADS-B
Sat 05:32:52 AM 38.5840 -90.2340 279° West 425 489 30,000  Level FlightAware ADS-B
Sat 05:33:37 AM 38.5970 -90.3510 278° West 426 490 30,000  Level FlightAware ADS-B
Sat 05:34:17 AM 38.6080 -90.4510 278° West 426 490 30,000  Level FlightAware ADS-B
Sat 05:35:02 AM 38.6200 -90.5650 278° West 426 490 30,000  Level FlightAware ADS-B
Sat 05:35:42 AM 38.6310 -90.6630 278° West 426 490 30,000  Level FlightAware ADS-B
Sat 05:36:22 AM 38.6420 -90.7620 278° West 426 490 30,000  Level FlightAware ADS-B
Sat 05:37:17 AM 38.6550 -90.8920 277° West 427 491 30,000  Level FlightAware ADS-B
Sat 05:37:57 AM 38.6630 -90.9780 277° West 427 491 30,000  Level FlightAware ADS-B
Sat 05:38:37 AM 38.6710 -91.0630 277° West 427 491 30,000  Level FlightAware ADS-B
Sat 05:39:27 AM 38.6820 -91.1700 278° West 427 491 30,000  Level FlightAware ADS-B
Sat 05:40:07 AM 38.6900 -91.2550 277° West 427 491 30,000  Level FlightAware ADS-B
Sat 05:40:47 AM 38.6980 -91.3410 277° West 427 491 30,000  Level FlightAware ADS-B
Sat 05:41:27 AM 38.7060 -91.4260 277° West 427 491 30,000  Level FlightAware ADS-B
Sat 05:42:07 AM 38.7140 -91.5120 277° West 427 491 30,000  Level FlightAware ADS-B
Sat 05:42:57 AM 38.7250 -91.6180 278° West 427 491 30,000  Level FlightAware ADS-B
Sat 05:43:37 AM 38.7330 -91.7040 277° West 427 491 30,000  Level FlightAware ADS-B
Sat 05:44:17 AM 38.7410 -91.7890 277° West 427 491 30,000  Level FlightAware ADS-B
Sat 05:44:57 AM 38.7490 -91.8750 277° West 427 491 30,000  Level FlightAware ADS-B
Sat 05:45:37 AM 38.7570 -91.9600 277° West 427 491 30,000  Level FlightAware ADS-B
Sat 05:46:27 AM 38.7680 -92.0670 278° West 427 491 30,000  Level FlightAware ADS-B
Sat 05:48:47 AM 38.8280 -92.6320 278° West 433 498 30,000  Level FlightAware ADS-B
Sat 05:49:17 AM 38.8350 -92.7140 276° West 432 497 30,000  Level FlightAware ADS-B
Sat 05:50:07 AM 38.8460 -92.8380 277° West 431 496 30,000  Level FlightAware ADS-B
Sat 05:50:52 AM 38.8570 -92.9530 277° West 431 496 30,000  Level FlightAware ADS-B
Sat 05:51:32 AM 38.8660 -93.0540 277° West 430 495 30,000  Level FlightAware ADS-B
Sat 05:52:17 AM 38.8760 -93.1710 276° West 430 495 30,000  Level FlightAware ADS-B
Sat 05:52:57 AM 38.8850 -93.2750 276° West 430 495 30,000  Level FlightAware ADS-B
Sat 05:53:37 AM 38.8930 -93.3740 276° West 431 496 30,000  Level FlightAware ADS-B
Sat 05:54:22 AM 38.9030 -93.4890 276° West 432 497 30,000  Level FlightAware ADS-B
Sat 05:55:02 AM 38.9110 -93.5910 276° West 433 498 30,000  Level FlightAware ADS-B
Sat 05:55:42 AM 38.9190 -93.6900 276° West 434 499 30,000  Level FlightAware ADS-B
Sat 05:56:27 AM 38.9290 -93.8110 276° West 435 501 30,000  Level FlightAware ADS-B
Sat 05:57:12 AM 38.9380 -93.9240 276° West 436 502 30,000  Level FlightAware ADS-B
Sat 05:57:52 AM 38.9460 -94.0240 276° West 436 502 30,000  Level FlightAware ADS-B
Sat 05:58:32 AM 38.9540 -94.1270 276° West 437 503 30,000  Level FlightAware ADS-B
Sat 05:59:17 AM 38.9640 -94.2490 276° West 439 505 30,000  Level FlightAware ADS-B
Sat 05:59:57 AM 38.9720 -94.3530 276° West 440 506 30,000  Level FlightAware ADS-B
Sat 06:00:42 AM 38.9800 -94.4640 275° West 441 507 30,000  Level FlightAware ADS-B
Sat 06:01:22 AM 38.9880 -94.5660 276° West 439 505 30,000  Level FlightAware ADS-B
Sat 06:02:02 AM 38.9960 -94.6730 276° West 439 505 30,000  Level FlightAware ADS-B
Sat 06:02:47 AM 39.0040 -94.7900 275° West 439 505 30,000  Level FlightAware ADS-B
Sat 06:03:27 AM 39.0120 -94.8960 276° West 438 504 30,000  Level FlightAware ADS-B
Sat 06:04:07 AM 39.0190 -94.9970 275° West 437 503 30,000  Level FlightAware ADS-B
Sat 06:04:52 AM 39.0270 -95.1130 275° West 436 502 30,000  Level FlightAware ADS-B
Sat 06:05:32 AM 39.0350 -95.2190 276° West 436 502 30,000  Level FlightAware ADS-B
Sat 06:06:12 AM 39.0410 -95.3220 274° West 435 501 30,000  Level FlightAware ADS-B
Sat 06:06:57 AM 39.0340 -95.2170 95° East 437 503 30,000  Level FlightAware ADS-B
Sat 06:07:37 AM 39.0410 -95.3140 275° West 436 502 30,000  Level FlightAware ADS-B
Sat 06:08:22 AM 39.0470 -95.4070 275° West 434 499 30,000  Level FlightAware ADS-B
Sat 06:09:02 AM 39.0520 -95.4790 275° West 434 499 30,000  Level FlightAware ADS-B
Sat 06:09:47 AM 39.0560 -95.5410 275° West 434 499 30,000  Level FlightAware ADS-B
Sat 06:10:27 AM 39.0610 -95.6180 275° West 434 499 30,000  Level FlightAware ADS-B
Sat 06:11:12 AM 39.0650 -95.6830 275° West 435 501 30,000  Level FlightAware ADS-B
Sat 06:12:27 AM 39.0730 -95.7990 275° West 437 503 30,000  Level FlightAware ADS-B
Sat 06:13:17 AM 39.0780 -95.8850 274° West 439 505 30,000  Level FlightAware ADS-B
Sat 06:13:52 AM 39.0810 -95.9260 275° West 440 506 30,000  Level FlightAware ADS-B
Sat 06:14:42 AM 39.0850 -95.9920 274° West 441 507 30,000  Level FlightAware ADS-B
Sat 06:15:37 AM 39.0900 -96.0780 274° West 441 507 30,000  Level FlightAware ADS-B
Sat 06:16:27 AM 39.0950 -96.1670 274° West 443 510 30,000 60 Level FlightAware ADS-B
Sat 06:17:17 AM 39.1010 -96.2700 274° West 444 511 30,100 67 Climbing FlightAware ADS-B
Sat 06:17:57 AM 39.1060 -96.3590 274° West 444 511 30,100  Level FlightAware ADS-B
Sat 06:18:37 AM 39.1110 -96.4490 274° West 444 511 30,100 -56 Level FlightAware ADS-B
Sat 06:19:22 AM 39.1350 -96.8510 275° West 30,000 -88 Descending FlightAware ADS-B
Sat 06:19:45 AM 39.1650 -97.4239 275° West 447 514 30,000  Level Kansas City Center
Sat 06:20:43 AM 39.1742 -97.6031 274° West 451 519 30,000  Level Kansas City Center
Sat 06:21:44 AM 39.1811 -97.7575 273° West 451 519 30,000  Level Kansas City Center
Sat 06:22:43 AM 39.1864 -97.9019 273° West 449 517 30,000  Level Kansas City Center
Sat 06:23:44 AM 39.1936 -98.0633 273° West 451 519 30,000 -50 Level Kansas City Center
Sat 06:24:44 AM 39.2008 -98.2233 273° West 451 519 29,900  Descending Kansas City Center
Sat 06:25:46 AM 39.2075 -98.3814 273° West 447 514 30,000 50 Climbing Kansas City Center
Sat 06:26:44 AM 39.2153 -98.5500 273° West 445 512 30,000  Level Kansas City Center
Sat 06:26:59 AM 39.2161 -98.5919 271° West 448 516 30,000  Level Denver Center
Sat 06:27:59 AM 39.2222 -98.7522 273° West 446 513 30,000  Level Denver Center
Sat 06:28:59 AM 39.2278 -98.9136 273° West 449 517 30,000 50 Level Denver Center
Sat 06:29:59 AM 39.2344 -99.0858 273° West 452 520 30,100 50 Climbing Denver Center
Sat 06:30:59 AM 39.2392 -99.2425 272° West 455 524 30,100 -50 Level Denver Center
Sat 06:32:00 AM 39.2450 -99.3981 273° West 454 522 30,000 -50 Descending Denver Center
Sat 06:33:00 AM 39.2508 -99.5792 272° West 453 521 30,000  Level Denver Center
Sat 06:34:00 AM 39.2553 -99.7350 272° West 454 522 30,000  Level Denver Center
Sat 06:35:00 AM 39.2600 -99.8919 272° West 456 525 30,000  Level Denver Center
Sat 06:36:00 AM 39.2644 -100.0719 272° West 452 520 30,000  Level Denver Center
Sat 06:37:01 AM 39.2681 -100.2289 272° West 455 524 30,000  Level Denver Center
Sat 06:38:01 AM 39.2731 -100.3847 272° West 454 522 30,000  Level Denver Center
Sat 06:39:01 AM 39.2758 -100.5414 271° West 456 525 30,000  Level Denver Center
Sat 06:40:01 AM 39.2803 -100.7258 272° West 457 526 30,000  Level Denver Center
Sat 06:41:01 AM 39.2839 -100.8847 272° West 462 532 30,000  Level Denver Center
Sat 06:46:21 AM 39.2978 -101.7670 272° West 452 520 30,000  Level FlightAware ADS-B
Sat 06:46:52 AM 39.2988 -101.8510 271° West 452 520 30,000  Level FlightAware ADS-B
Sat 06:47:23 AM 39.2997 -101.9340 271° West 452 520 30,000  Level FlightAware ADS-B
Sat 06:47:53 AM 39.3005 -102.0150 271° West 453 521 30,000  Level FlightAware ADS-B
Sat 06:48:23 AM 39.3013 -102.0960 271° West 454 522 30,000  Level FlightAware ADS-B
Sat 06:48:54 AM 39.3021 -102.1800 271° West 455 524 30,000  Level FlightAware ADS-B
Sat 06:49:24 AM 39.3029 -102.2620 271° West 456 525 30,000  Level FlightAware ADS-B
Sat 06:49:55 AM 39.3032 -102.3460 270° West 456 525 30,000  Level FlightAware ADS-B
Sat 06:50:26 AM 39.3038 -102.4310 271° West 457 526 30,000  Level FlightAware ADS-B
Sat 06:50:56 AM 39.3044 -102.5120 271° West 457 526 30,000  Level FlightAware ADS-B
Sat 06:51:26 AM 39.3048 -102.5940 270° West 458 527 30,000  Level FlightAware ADS-B
Sat 06:51:56 AM 39.3052 -102.6760 270° West 459 528 30,000  Level FlightAware ADS-B
Sat 06:52:27 AM 39.3055 -102.7610 270° West 459 528 30,000  Level FlightAware ADS-B
Sat 06:52:58 AM 39.3057 -102.8460 270° West 459 528 30,000  Level FlightAware ADS-B
Sat 06:53:28 AM 39.3060 -102.9280 270° West 460 529 30,000  Level FlightAware ADS-B
Sat 06:53:59 AM 39.3062 -103.0130 270° West 461 531 30,000  Level FlightAware ADS-B
Sat 06:54:29 AM 39.3062 -103.0960 270° West 461 531 30,000  Level FlightAware ADS-B
Sat 06:55:00 AM 39.3062 -103.1810 270° West 462 532 30,000  Level FlightAware ADS-B
Sat 06:55:30 AM 39.3061 -103.2640 270° West 462 532 30,000  Level FlightAware ADS-B
Sat 06:56:01 AM 39.3061 -103.3490 270° West 461 531 30,000  Level FlightAware ADS-B
Sat 06:56:31 AM 39.3060 -103.4310 270° West 460 529 30,000  Level FlightAware ADS-B
Sat 06:57:01 AM 39.3057 -103.5130 270° West 459 528 30,000  Level FlightAware ADS-B
Sat 06:57:31 AM 39.3054 -103.5960 270° West 458 527 30,000  Level FlightAware ADS-B
Sat 06:58:01 AM 39.3050 -103.6770 270° West 458 527 30,000  Level FlightAware ADS-B
Sat 06:58:32 AM 39.3047 -103.7590 270° West 458 527 30,000  Level FlightAware ADS-B
Sat 06:59:02 AM 39.3043 -103.8440 270° West 458 527 30,000  Level FlightAware ADS-B
Sat 06:59:32 AM 39.3038 -103.9260 270° West 460 529 30,000  Level FlightAware ADS-B
Sat 07:00:02 AM 39.3032 -104.0080 269° West 462 532 30,000  Level FlightAware ADS-B
Sat 07:00:33 AM 39.3024 -104.0940 269° West 463 533 30,000  Level FlightAware ADS-B
Sat 07:01:03 AM 39.3018 -104.1770 269° West 464 534 30,000 98 Level FlightAware ADS-B
Sat 07:01:34 AM 39.3011 -104.2630 269° West 466 536 30,100 98 Climbing FlightAware ADS-B
Sat 07:02:04 AM 39.3003 -104.3460 269° West 468 539 30,100  Level FlightAware ADS-B
Sat 07:02:36 AM 39.2993 -104.4360 269° West 470 541 30,100  Level FlightAware ADS-B
Sat 07:03:08 AM 39.2983 -104.5230 269° West 472 543 30,100  Level FlightAware ADS-B
Sat 07:03:38 AM 39.2973 -104.6100 269° West 469 540 30,100 -100 Level FlightAware ADS-B
Sat 07:04:08 AM 39.2962 -104.6930 269° West 466 536 30,000 -98 Descending FlightAware ADS-B
Sat 07:04:39 AM 39.2950 -104.7790 269° West 463 533 30,000  Level FlightAware ADS-B
Sat 07:05:09 AM 39.2939 -104.8620 269° West 460 529 30,000  Level FlightAware ADS-B
Sat 07:05:39 AM 39.2926 -104.9440 269° West 459 528 30,000  Level FlightAware ADS-B
Sat 07:06:10 AM 39.2913 -105.0290 269° West 459 528 30,000  Level FlightAware ADS-B
Sat 07:06:41 AM 39.2899 -105.1140 269° West 460 529 30,000  Level FlightAware ADS-B
Sat 07:07:13 AM 39.2885 -105.1990 269° West 459 528 30,000  Level FlightAware ADS-B
Sat 07:07:43 AM 39.2870 -105.2810 269° West 458 527 30,000  Level FlightAware ADS-B
Sat 07:08:13 AM 39.2854 -105.3650 269° West 457 526 30,000  Level FlightAware ADS-B
Sat 07:08:44 AM 39.2839 -105.4490 269° West 457 526 30,000  Level FlightAware ADS-B
Sat 07:09:14 AM 39.2822 -105.5310 268° West 456 525 30,000  Level FlightAware ADS-B
Sat 07:09:45 AM 39.2804 -105.6150 268° West 455 524 30,000  Level FlightAware ADS-B
Sat 07:10:15 AM 39.2788 -105.6960 269° West 456 525 30,000  Level FlightAware ADS-B
Sat 07:10:46 AM 39.2769 -105.7810 268° West 457 526 30,000  Level FlightAware ADS-B
Sat 07:11:16 AM 39.2750 -105.8620 268° West 457 526 30,000  Level FlightAware ADS-B
Sat 07:11:46 AM 39.2730 -105.9450 268° West 458 527 30,000  Level FlightAware ADS-B
Sat 07:12:20 AM 39.2707 -106.0350 268° West 460 529 30,000  Level FlightAware ADS-B
Sat 07:12:50 AM 39.2687 -106.1170 268° West 462 532 30,000  Level FlightAware ADS-B
Sat 07:13:20 AM 39.2666 -106.2030 268° West 463 533 30,000  Level FlightAware ADS-B
Sat 07:13:55 AM 39.2640 -106.2990 268° West 464 534 30,000 91 Level FlightAware ADS-B
Sat 07:14:26 AM 39.2617 -106.3850 268° West 464 534 30,100 98 Climbing FlightAware ADS-B
Sat 07:14:56 AM 39.2593 -106.4680 268° West 464 534 30,100 -98 Level FlightAware ADS-B
Sat 07:15:27 AM 39.2569 -106.5540 268° West 465 535 30,000 -98 Descending FlightAware ADS-B
Sat 07:15:57 AM 39.2544 -106.6370 268° West 465 535 30,000  Level FlightAware ADS-B
Sat 07:16:37 AM 39.2511 -106.7480 268° West 465 535 30,000  Level FlightAware ADS-B
Sat 07:17:07 AM 39.2484 -106.8310 268° West 465 535 30,000  Level FlightAware ADS-B
Sat 07:17:49 AM 39.2447 -106.9470 268° West 464 534 30,000  Level FlightAware ADS-B
Sat 07:18:20 AM 39.2420 -107.0330 268° West 465 535 30,000  Level FlightAware ADS-B
Sat 07:18:50 AM 39.2391 -107.1160 267° West 464 534 30,000  Level FlightAware ADS-B
Sat 07:19:52 AM 39.2340 -107.2700 268° West 463 533 30,000  Level FlightAware ADS-B
Sat 07:20:32 AM 39.2300 -107.3860 267° West 463 533 30,000  Level FlightAware ADS-B
Sat 07:21:17 AM 39.2250 -107.5100 267° West 464 534 30,000  Level FlightAware ADS-B
Sat 07:21:57 AM 39.2210 -107.6080 267° West 464 534 30,000  Level FlightAware ADS-B
Sat 07:22:52 AM 39.2150 -107.7700 267° West 463 533 30,000  Level FlightAware ADS-B
Sat 07:23:37 AM 39.2100 -107.8940 267° West 463 533 30,000  Level FlightAware ADS-B
Sat 07:24:17 AM 39.2050 -108.0070 267° West 463 533 30,000  Level FlightAware ADS-B
Sat 07:24:57 AM 39.2010 -108.1170 267° West 462 532 30,000  Level FlightAware ADS-B
Sat 07:25:42 AM 39.1960 -108.2350 267° West 462 532 30,000  Level FlightAware ADS-B
Sat 07:26:37 AM 39.1880 -108.3860 266° West 463 533 30,000 67 Level FlightAware ADS-B
Sat 07:27:12 AM 39.1840 -108.4880 267° West 461 531 30,100  Climbing FlightAware ADS-B
Sat 07:28:02 AM 39.1780 -108.6250 267° West 459 528 30,000 -67 Descending FlightAware ADS-B
Sat 07:28:42 AM 39.1720 -108.7400 266° West 459 528 30,000  Level FlightAware ADS-B
Sat 07:29:27 AM 39.1660 -108.8600 266° West 458 527 30,000  Level FlightAware ADS-B
Sat 07:30:07 AM 39.1610 -108.9720 267° West 458 527 30,000  Level FlightAware ADS-B
Sat 07:30:57 AM 39.1550 -109.0770 266° West 457 526 30,000  Level FlightAware ADS-B
Sat 07:31:42 AM 39.1480 -109.2190 266° West 457 526 30,000  Level FlightAware ADS-B
Sat 07:32:22 AM 39.1420 -109.3330 266° West 455 524 30,000  Level FlightAware ADS-B
Sat 07:33:02 AM 39.1370 -109.4350 266° West 456 525 30,000  Level FlightAware ADS-B
Sat 07:33:52 AM 39.1290 -109.5760 266° West 455 524 30,000  Level FlightAware ADS-B
Sat 07:34:27 AM 39.1240 -109.6630 266° West 455 524 30,000  Level FlightAware ADS-B
Sat 07:35:17 AM 39.1180 -109.7780 266° West 455 524 30,000  Level FlightAware ADS-B
Sat 07:35:57 AM 39.1130 -109.8700 266° West 455 524 30,000  Level FlightAware ADS-B
Sat 07:36:37 AM 39.1080 -109.9620 266° West 455 524 30,000  Level FlightAware ADS-B
Sat 07:37:17 AM 39.1030 -110.0540 266° West 455 524 30,000  Level FlightAware ADS-B
Sat 07:37:40 AM 39.0939 -110.1867 266° West 457 526 30,000 72 Level Salt Lake Center
Sat 07:38:40 AM 39.0864 -110.3439 267° West 459 528 30,100  Climbing Salt Lake Center
Sat 07:39:41 AM 39.0744 -110.5272 265° West 460 529 30,000 -50 Descending Salt Lake Center
Sat 07:40:41 AM 39.0628 -110.6847 265° West 461 531 30,000  Level Salt Lake Center
Sat 07:41:41 AM 39.0519 -110.8431 265° West 463 533 30,000  Level Salt Lake Center
Sat 07:42:41 AM 39.0419 -111.0006 265° West 462 532 30,000  Level Salt Lake Center
Sat 07:43:41 AM 39.0300 -111.1839 265° West 460 529 30,000  Level Salt Lake Center
Sat 07:44:41 AM 39.0200 -111.3442 265° West 460 529 30,000 -50 Level Salt Lake Center
Sat 07:45:42 AM 39.0081 -111.5050 265° West 456 525 29,900  Descending Salt Lake Center
Sat 07:46:42 AM 38.9961 -111.6661 265° West 455 524 30,000 50 Climbing Salt Lake Center
Sat 07:47:42 AM 38.9836 -111.8308 264° West 463 533 30,000  Level Salt Lake Center
Sat 07:48:42 AM 38.9717 -111.9936 265° West 460 529 30,000  Level Salt Lake Center
Sat 07:49:42 AM 38.9592 -112.1550 264° West 457 526 30,000  Level Salt Lake Center
Sat 07:50:43 AM 38.9464 -112.3169 264° West 458 527 30,000  Level Salt Lake Center
Sat 07:51:43 AM 38.9336 -112.4783 264° West 456 525 30,000  Level Salt Lake Center
Sat 07:52:43 AM 38.9197 -112.6378 264° West 454 522 30,000  Level Salt Lake Center
Sat 07:53:43 AM 38.9056 -112.7972 264° West 452 520 30,000  Level Salt Lake Center
Sat 07:54:43 AM 38.8922 -112.9578 264° West 453 521 30,000  Level Salt Lake Center
Sat 07:55:44 AM 38.8792 -113.1197 264° West 456 525 30,000  Level Salt Lake Center
Sat 07:56:44 AM 38.8664 -113.2742 264° West 450 518 30,000  Level Salt Lake Center
Sat 07:57:44 AM 38.8517 -113.4331 263° West 451 519 30,000  Level Salt Lake Center
Sat 07:58:44 AM 38.8375 -113.5922 264° West 452 520 30,000 50 Level Salt Lake Center
Sat 07:59:44 AM 38.8231 -113.7525 263° West 455 524 30,100 744 Climbing Salt Lake Center
Sat 08:00:45 AM 38.8072 -113.9133 263° West 457 526 31,500 942 Climbing Salt Lake Center
Sat 08:01:45 AM 38.7936 -114.0722 264° West 452 520 32,000 250 Climbing Salt Lake Center
Sat 08:02:45 AM 38.7783 -114.2283 263° West 446 513 32,000  Level Salt Lake Center
Sat 08:03:45 AM 38.7639 -114.3836 263° West 444 511 32,000  Level Salt Lake Center
Sat 08:04:45 AM 38.7489 -114.5400 263° West 445 512 32,000  Level Salt Lake Center
Sat 08:05:46 AM 38.7331 -114.6944 263° West 441 507 32,000  Level Salt Lake Center
Sat 08:06:46 AM 38.7172 -114.8494 263° West 441 507 32,000  Level Salt Lake Center
Sat 08:07:46 AM 38.6983 -115.0086 261° West 450 518 32,000  Level Salt Lake Center
Sat 08:08:46 AM 38.6817 -115.1650 262° West 448 516 32,000  Level Salt Lake Center
Sat 08:09:47 AM 38.6675 -115.3178 263° West 441 507 32,000  Level Salt Lake Center
Sat 08:10:47 AM 38.6500 -115.4769 262° West 437 503 32,000  Level Salt Lake Center
Sat 08:11:47 AM 38.6339 -115.6297 262° West 435 501 32,000  Level Salt Lake Center
Sat 08:12:47 AM 38.6172 -115.7806 262° West 431 496 32,000  Level Salt Lake Center
Sat 08:13:48 AM 38.6011 -115.9317 262° West 430 495 32,000  Level Salt Lake Center
Sat 08:14:48 AM 38.5844 -116.0831 262° West 431 496 32,000  Level Salt Lake Center
Sat 08:15:19 AM 38.5747 -116.1753 262° West 433 498 32,000  Level Oakland Center
Sat 08:16:19 AM 38.5572 -116.3278 262° West 434 499 32,000 67 Level Oakland Center
Sat 08:16:48 AM 38.5500 -116.3900 262° West 437 503 32,100  Climbing Salt Lake Center
Sat 08:17:49 AM 38.5317 -116.5436 261° West 439 505 32,000  Descending Salt Lake Center
Sat 08:18:19 AM 38.5217 -116.6356 262° West 438 504 32,100  Climbing Oakland Center
Sat 08:19:19 AM 38.4981 -116.7903 259° West 444 511 32,000 -50 Descending Oakland Center
Sat 08:20:19 AM 38.4736 -116.9428 258° West 443 510 32,000  Level Oakland Center
Sat 08:21:19 AM 38.4503 -117.0953 259° West 442 509 32,000  Level Oakland Center
Sat 08:21:50 AM 38.4356 -117.1839 258° West 438 504 32,000  Level Salt Lake Center
Sat 08:22:50 AM 38.4125 -117.3347 259° West 439 505 32,000 -67 Level Salt Lake Center
Sat 08:23:20 AM 38.4031 -117.3961 259° West 440 506 31,900  Descending Oakland Center
Sat 08:24:21 AM 38.3786 -117.5461 258° West 437 503 32,000 50 Climbing Oakland Center
Sat 08:25:20 AM 38.3550 -117.6975 259° West 438 504 32,000 50 Level Oakland Center
Sat 08:26:20 AM 38.3300 -117.8508 258° West 443 510 32,100  Climbing Oakland Center
Sat 08:27:20 AM 38.3044 -118.0039 258° West 444 511 32,000 -15 Descending Oakland Center
Sat 08:33:07 AM 38.1520 -118.9120 258° West 449 517 32,000  Level FlightAware ADS-B
Sat 08:33:42 AM 38.1370 -118.9990 258° West 450 518 32,000  Level FlightAware ADS-B
Sat 08:34:27 AM 38.1170 -119.1160 258° West 451 519 32,000  Level FlightAware ADS-B
Sat 08:35:17 AM 38.0930 -119.2500 257° West 452 520 32,000  Level FlightAware ADS-B
Sat 08:35:57 AM 38.0750 -119.3540 258° West 452 520 32,000  Level FlightAware ADS-B
Sat 08:36:47 AM 38.0530 -119.4760 257° West 453 521 32,000  Level FlightAware ADS-B
Sat 08:37:37 AM 38.0300 -119.6080 258° West 455 524 32,000 67 Level FlightAware ADS-B
Sat 08:38:17 AM 38.0100 -119.7170 257° West 455 524 32,100  Climbing FlightAware ADS-B
Sat 08:39:02 AM 37.9900 -119.8290 257° West 456 525 32,000 -80 Descending FlightAware ADS-B
Sat 08:39:32 AM 37.9760 -119.9080 257° West 457 526 32,000  Level FlightAware ADS-B
Sat 08:40:22 AM 37.9520 -120.0380 257° West 458 527 32,000  Level FlightAware ADS-B
Sat 08:41:07 AM 37.9300 -120.1590 257° West 457 526 32,000  Level FlightAware ADS-B
Sat 08:41:47 AM 37.9120 -120.2580 257° West 457 526 32,000  Level FlightAware ADS-B
Sat 08:42:32 AM 37.8890 -120.3780 256° West 457 526 32,000  Level FlightAware ADS-B
Sat 08:43:12 AM 37.8690 -120.4840 257° West 456 525 32,000  Level FlightAware ADS-B
Sat 08:43:57 AM 37.8470 -120.6010 257° West 456 525 32,000  Level FlightAware ADS-B
Sat 08:44:32 AM 37.8310 -120.6900 257° West 456 525 32,000  Level FlightAware ADS-B
Sat 08:45:17 AM 37.8090 -120.8060 257° West 457 526 32,000  Level FlightAware ADS-B
Sat 08:46:02 AM 37.7860 -120.9260 256° West 457 526 32,000  Level FlightAware ADS-B
Sat 08:46:42 AM 37.7660 -121.0270 256° West 457 526 32,000  Level FlightAware ADS-B
Sat 08:47:22 AM 37.7470 -121.1290 257° West 457 526 32,000 71 Level FlightAware ADS-B
Sat 08:48:07 AM 37.7230 -121.2530 256° West 456 525 32,100 71 Climbing FlightAware ADS-B
Sat 08:48:47 AM 37.7030 -121.3540 256° West 457 526 32,100 -71 Level FlightAware ADS-B
Sat 08:49:32 AM 37.6810 -121.4680 256° West 455 524 32,000 -71 Descending FlightAware ADS-B
Sat 08:50:12 AM 37.6600 -121.5730 256° West 454 522 32,000  Level FlightAware ADS-B
Sat 08:50:52 AM 37.6400 -121.6730 256° West 454 522 32,000  Level FlightAware ADS-B
Sat 08:51:37 AM 37.6160 -121.7940 256° West 453 521 32,000  Level FlightAware ADS-B
Sat 08:52:17 AM 37.5960 -121.8960 256° West 454 522 32,000  Level FlightAware ADS-B
Sat 08:53:02 AM 37.5730 -122.0070 255° West 456 525 32,000  Level FlightAware ADS-B
Sat 08:53:42 AM 37.5520 -122.1100 256° West 459 528 32,000  Level FlightAware ADS-B
Sat 08:54:22 AM 37.5310 -122.2140 256° West 461 531 32,000 75 Level FlightAware ADS-B
Sat 08:55:02 AM 37.5100 -122.3210 256° West 463 533 32,100  Climbing FlightAware ADS-B
Sat 08:55:47 AM 37.4850 -122.4390 255° West 465 535 32,000  Descending FlightAware ADS-B
Sat 08:56:27 AM 37.4650 -122.5360 255° West 466 536 32,100  Climbing FlightAware ADS-B
Sat 08:57:07 AM 37.4430 -122.6410 255° West 465 535 32,000 -71 Descending FlightAware ADS-B
Sat 08:57:52 AM 37.4180 -122.7640 256° West 463 533 32,000  Level FlightAware ADS-B
Sat 08:58:32 AM 37.3970 -122.8650 255° West 463 533 32,000  Level FlightAware ADS-B
Sat 08:59:17 AM 37.3710 -122.9870 255° West 461 531 32,000  Level FlightAware ADS-B
Sat 08:59:57 AM 37.3490 -123.0910 255° West 460 529 32,000  Level FlightAware ADS-B
Sat 09:00:42 AM 37.3240 -123.2090 255° West 460 529 32,000  Level FlightAware ADS-B
Sat 09:01:22 AM 37.3020 -123.3100 255° West 461 531 32,000  Level FlightAware ADS-B
Sat 09:02:07 AM 37.2780 -123.4240 255° West 465 535 32,000  Level FlightAware ADS-B
Sat 09:02:47 AM 37.2560 -123.5240 255° West 466 536 32,000  Level FlightAware ADS-B
Sat 09:03:42 AM 37.2280 -123.6550 255° West 465 535 32,000  Level FlightAware ADS-B
Sat 09:04:22 AM 37.2090 -123.7440 255° West 465 535 32,000  Level FlightAware ADS-B
Sat 09:05:02 AM 37.1900 -123.8330 255° West 465 535 32,000  Level FlightAware ADS-B
Sat 09:05:42 AM 37.1710 -123.9210 255° West 465 535 32,000  Level FlightAware ADS-B
Sat 09:06:22 AM 37.1520 -124.0100 255° West 465 535 32,000  Level FlightAware ADS-B
Sat 09:07:12 AM 37.1290 -124.1210 255° West 465 535 32,000  Level FlightAware ADS-B
Sat 09:07:52 AM 37.1100 -124.2090 255° West 465 535 32,000  Level FlightAware ADS-B
Sat 09:08:32 AM 37.0910 -124.2980 255° West 465 535 32,000  Level FlightAware ADS-B
Sat 09:09:22 AM 37.0670 -124.4090 255° West 465 535 32,000  Level FlightAware ADS-B
Sat 09:10:02 AM 37.0480 -124.4970 255° West 465 535 32,000  Level FlightAware ADS-B
Sat 09:10:42 AM 37.0290 -124.5860 255° West 465 535 32,000  Level FlightAware ADS-B
Sat 09:11:22 AM 37.0100 -124.6740 255° West 465 535 32,000  Level FlightAware ADS-B
Sat 09:12:02 AM 36.9910 -124.7630 255° West 465 535 32,000  Level FlightAware ADS-B
Sat 09:12:42 AM 36.9720 -124.8510 255° West 465 535 32,000 -69 Level FlightAware ADS-B
Sat 09:13:29 AM 36.8789 -125.2131 255° West 472 543 31,900 -56 Descending Oakland Center
Sat 09:14:29 AM 36.8431 -125.3700 254° West 471 542 31,900  Level Oakland Center
Sat 09:15:29 AM 36.8064 -125.5272 254° West 472 543 31,900  Level Oakland Center
Sat 09:16:29 AM 36.7692 -125.6847 254° West 475 547 31,900 50 Level Oakland Center
Sat 09:17:30 AM 36.7308 -125.8425 253° West 475 547 32,000 50 Climbing Oakland Center
Sat 09:18:30 AM 36.6939 -126.0014 254° West 478 550 32,000  Level Oakland Center
Sat 09:19:30 AM 36.6558 -126.1608 253° West 480 552 32,000  Level Oakland Center
Sat 09:20:31 AM 36.6164 -126.3200 253° West 482 555 32,000  Level Oakland Center
Sat 09:21:31 AM 36.5769 -126.4792 253° West 482 555 32,000  Level Oakland Center
Sat 09:22:32 AM 36.5389 -126.6403 254° West 484 557 32,000  Level Oakland Center
Sat 09:23:32 AM 36.5000 -126.8003 253° West 484 557 32,000  Level Oakland Center
Sat 09:24:31 AM 36.4667 -126.9333 250° West 480 552 32,000 -100 Level Oakland Oceanic (ODAPS)
Sat 09:24:32 AM 36.4600 -126.9600 253° West 485 558 31,900 -97 Descending Oakland Center
Sat 09:25:33 AM 36.4153 -127.1169 250° West 484 557 31,900 92 Level Oakland Center
Sat 09:25:37 AM 36.4333 -127.0500 250° West 481 554 32,000 100 Climbing Oakland Oceanic (ODAPS)
Sat 09:26:33 AM 36.3700 -127.2750 250° West 486 559 32,000  Level Oakland Center
Sat 09:26:37 AM 36.3667 -127.2500 250° West 481 554 32,000  Level Oakland Oceanic (ODAPS)
Sat 09:27:34 AM 36.3214 -127.4419 250° West 484 557 32,000  Level Oakland Center
Sat 09:29:00 AM 36.2586 -127.6525 250° West  Level FlightAware Approximate
Sat 09:36:00 AM 35.9468 -128.6758 250° West  Level FlightAware Approximate
Sat 09:37:00 AM 35.9015 -128.8213 249° West  Level FlightAware Approximate
Sat 09:38:00 AM 35.8561 -128.9667 249° West  Level FlightAware Approximate
Sat 09:39:00 AM 35.8105 -129.1119 249° West  Level FlightAware Approximate
Sat 09:39:12 AM 35.7833 -129.2000 249° West 479 551 32,000  Level Oakland Oceanic (ODAPS)
Sat 09:40:00 AM 35.7647 -129.2569 249° West  Level FlightAware Approximate
Sat 09:41:00 AM 35.7187 -129.4017 249° West  Level FlightAware Approximate
Sat 09:42:00 AM 35.6726 -129.5464 249° West  Level FlightAware Approximate
Sat 09:43:00 AM 35.6263 -129.6910 249° West  Level FlightAware Approximate
Sat 09:44:00 AM 35.5798 -129.8353 248° West  Level FlightAware Approximate
Sat 09:45:00 AM 35.4875 -130.1249 248° West 479 551 32,000  Level FlightAware Transoceanic
Sat 09:46:00 AM 35.4376 -130.2784 248° West 479 551 32,000  Level FlightAware Transoceanic
Sat 09:47:00 AM 35.3874 -130.4317 248° West 479 551 32,000  Level FlightAware Transoceanic
Sat 09:48:00 AM 35.3370 -130.5848 248° West 479 551 32,000  Level FlightAware Transoceanic
Sat 09:49:00 AM 35.2864 -130.7377 248° West 479 551 32,000  Level FlightAware Transoceanic
Sat 09:50:00 AM 35.2357 -130.8904 248° West 479 551 32,000  Level FlightAware Transoceanic
Sat 09:51:00 AM 35.1847 -131.0430 248° West 479 551 32,000  Level FlightAware Transoceanic
Sat 09:52:00 AM 35.1336 -131.1953 248° West 479 551 32,000  Level FlightAware Transoceanic
Sat 09:53:00 AM 35.0823 -131.3474 248° West 479 551 32,000  Level FlightAware Transoceanic
Sat 09:53:06 AM 35.1000 -131.2833 248° West 478 550 32,000  Level Oakland Oceanic (ODAPS)
Sat 09:54:00 AM 35.0308 -131.4994 247° West 479 551 32,000  Level FlightAware Transoceanic
Sat 09:55:00 AM 34.9791 -131.6511 247° West 479 551 32,000  Level FlightAware Transoceanic
Sat 09:56:00 AM 34.9272 -131.8027 247° West 479 551 32,000  Level FlightAware Transoceanic
Sat 09:57:00 AM 34.8751 -131.9541 247° West 479 551 32,000  Level FlightAware Transoceanic
Sat 09:58:00 AM 34.8228 -132.1053 247° West 479 551 32,000  Level FlightAware Transoceanic
Sat 09:59:00 AM 34.7831 -132.2117 247° West 478 550 32,000  Level FlightAware Transoceanic
Sat 10:00:00 AM 34.7296 -132.3658 247° West 478 550 32,000  Level FlightAware Transoceanic
Sat 10:01:00 AM 34.6759 -132.5196 247° West 478 550 32,000  Level FlightAware Transoceanic
Sat 10:02:00 AM 34.6220 -132.6732 247° West 478 550 32,000  Level FlightAware Transoceanic
Sat 10:03:00 AM 34.5679 -132.8266 247° West 478 550 32,000  Level FlightAware Transoceanic
Sat 10:04:00 AM 34.5136 -132.9799 247° West 478 550 32,000  Level FlightAware Transoceanic
Sat 10:05:00 AM 34.4592 -133.1329 247° West 478 550 32,000  Level FlightAware Transoceanic
Sat 10:06:00 AM 34.4045 -133.2858 247° West 478 550 32,000  Level FlightAware Transoceanic
Sat 10:06:56 AM 34.3833 -133.3667 246° West 485 558 32,000  Level Oakland Oceanic (ODAPS)
Sat 10:07:00 AM 34.3497 -133.4384 246° West 478 550 32,000  Level FlightAware Transoceanic
Sat 10:08:00 AM 34.2947 -133.5908 246° West 478 550 32,000  Level FlightAware Transoceanic
Sat 10:09:00 AM 34.2394 -133.7431 246° West 478 550 32,000  Level FlightAware Transoceanic
Sat 10:10:00 AM 34.1840 -133.8951 246° West 478 550 32,000  Level FlightAware Transoceanic
Sat 10:11:00 AM 34.1284 -134.0469 246° West 478 550 32,000  Level FlightAware Transoceanic
Sat 10:12:00 AM 34.0726 -134.1986 246° West 478 550 32,000  Level FlightAware Transoceanic
Sat 10:13:00 AM 34.0167 -134.3500 246° West 485 558 32,000  Level FlightAware Transoceanic
Sat 10:13:27 AM 34.0167 -134.3500 246° West 497 572 32,000  Level Oakland Oceanic (ODAPS)
Sat 10:14:00 AM 33.9616 -134.4989 246° West 485 558 32,000  Level FlightAware Transoceanic
Sat 10:15:00 AM 33.9064 -134.6477 246° West 485 558 32,000  Level FlightAware Transoceanic
Sat 10:16:00 AM 33.8510 -134.7963 246° West 485 558 32,000  Level FlightAware Transoceanic
Sat 10:17:00 AM 33.7955 -134.9446 246° West 485 558 32,000  Level FlightAware Transoceanic
Sat 10:18:00 AM 33.7397 -135.0928 246° West 485 558 32,000  Level FlightAware Transoceanic
Sat 10:19:00 AM 33.6766 -135.2597 246° West 497 572 32,000  Level FlightAware Transoceanic
Sat 10:20:00 AM 33.6193 -135.4106 245° Southwest 497 572 32,000  Level FlightAware Transoceanic
Sat 10:20:59 AM 33.6167 -135.4333 245° Southwest 499 574 32,000  Level Oakland Oceanic (ODAPS)
Sat 10:21:00 AM 33.5618 -135.5613 245° Southwest 497 572 32,000  Level FlightAware Transoceanic
Sat 10:22:00 AM 33.5041 -135.7118 245° Southwest 497 572 32,000  Level FlightAware Transoceanic
Sat 10:23:00 AM 33.4463 -135.8621 245° Southwest 497 572 32,000  Level FlightAware Transoceanic
Sat 10:24:00 AM 33.3882 -136.0122 245° Southwest 497 572 32,000  Level FlightAware Transoceanic
Sat 10:25:00 AM 33.3300 -136.1621 245° Southwest 497 572 32,000  Level FlightAware Transoceanic
Sat 10:26:00 AM 33.2716 -136.3118 245° Southwest 497 572 32,000  Level FlightAware Transoceanic
Sat 10:27:00 AM 33.2602 -136.3540 245° Southwest 499 574 32,000  Level FlightAware Transoceanic
Sat 10:28:00 AM 33.2001 -136.5067 245° Southwest 499 574 32,000  Level FlightAware Transoceanic
Sat 10:29:00 AM 33.1399 -136.6591 245° Southwest 499 574 32,000  Level FlightAware Transoceanic
Sat 10:30:00 AM 33.0794 -136.8114 245° Southwest 499 574 32,000  Level FlightAware Transoceanic
Sat 10:31:00 AM 33.0188 -136.9635 245° Southwest 499 574 32,000  Level FlightAware Transoceanic
Sat 10:32:00 AM 32.9580 -137.1154 244° Southwest 499 574 32,000  Level FlightAware Transoceanic
Sat 10:33:00 AM 32.8970 -137.2670 244° Southwest 499 574 32,000  Level FlightAware Transoceanic
Sat 10:34:00 AM 32.8358 -137.4185 244° Southwest 499 574 32,000  Level FlightAware Transoceanic
Sat 10:34:40 AM 32.8167 -137.4833 244° Southwest 502 578 32,000  Level Oakland Oceanic (ODAPS)
Sat 10:35:00 AM 32.7745 -137.5697 244° Southwest 499 574 32,000  Level FlightAware Transoceanic
Sat 10:36:00 AM 32.7130 -137.7207 244° Southwest 499 574 32,000  Level FlightAware Transoceanic
Sat 10:37:00 AM 32.6512 -137.8716 244° Southwest 499 574 32,000  Level FlightAware Transoceanic
Sat 10:38:00 AM 32.5893 -138.0222 244° Southwest 499 574 32,000  Level FlightAware Transoceanic
Sat 10:39:00 AM 32.5272 -138.1726 244° Southwest 499 574 32,000  Level FlightAware Transoceanic
Sat 10:40:00 AM 32.4650 -138.3228 244° Southwest 499 574 32,000  Level FlightAware Transoceanic
Sat 10:41:00 AM 32.3881 -138.5198 244° Southwest 502 578 32,000  Level FlightAware Transoceanic
Sat 10:42:00 AM 32.3262 -138.6670 244° Southwest 502 578 32,000  Level FlightAware Transoceanic
Sat 10:43:00 AM 32.2642 -138.8141 243° Southwest 502 578 32,000  Level FlightAware Transoceanic
Sat 10:44:00 AM 32.2019 -138.9609 243° Southwest 502 578 32,000  Level FlightAware Transoceanic
Sat 10:45:00 AM 32.1395 -139.1076 243° Southwest 502 578 32,000  Level FlightAware Transoceanic
Sat 10:46:00 AM 32.0769 -139.2540 243° Southwest 502 578 32,000  Level FlightAware Transoceanic
Sat 10:47:00 AM 32.0142 -139.4003 243° Southwest 502 578 32,000  Level FlightAware Transoceanic
Sat 10:48:00 AM 31.9512 -139.5463 243° Southwest 502 578 32,000  Level FlightAware Transoceanic
Sat 10:48:32 AM 31.9667 -139.5000 243° Southwest 502 578 32,000  Level Oakland Oceanic (ODAPS)
Sat 10:49:00 AM 31.8881 -139.6922 243° Southwest 502 578 32,000  Level FlightAware Transoceanic
Sat 10:50:00 AM 31.8249 -139.8378 243° Southwest 502 578 32,000  Level FlightAware Transoceanic
Sat 10:51:00 AM 31.7615 -139.9832 243° Southwest 502 578 32,000  Level FlightAware Transoceanic
Sat 10:52:00 AM 31.6979 -140.1285 243° Southwest 502 578 32,000  Level FlightAware Transoceanic
Sat 10:53:00 AM 31.6341 -140.2735 243° Southwest 502 578 32,000  Level FlightAware Transoceanic
Sat 10:54:00 AM 31.6082 -140.3268 243° Southwest 502 578 32,000  Level FlightAware Transoceanic
Sat 10:55:00 AM 31.5480 -140.4640 243° Southwest 502 578 32,000  Level FlightAware Transoceanic
Sat 10:56:00 AM 31.4875 -140.6010 243° Southwest 502 578 32,000  Level FlightAware Transoceanic
Sat 10:57:00 AM 31.4270 -140.7378 243° Southwest 502 578 32,000  Level FlightAware Transoceanic
Sat 10:58:00 AM 31.3663 -140.8745 242° Southwest 502 578 32,000  Level FlightAware Transoceanic
Sat 10:59:00 AM 31.3055 -141.0109 242° Southwest 502 578 32,000  Level FlightAware Transoceanic
Sat 11:00:00 AM 31.2445 -141.1472 242° Southwest 502 578 32,000  Level FlightAware Transoceanic
Sat 11:00:44 AM 31.1833 -141.2833 242° Southwest 515 593 32,000  Level Oakland Oceanic (ODAPS)
Sat 11:01:00 AM 31.1833 -141.2833 242° Southwest 502 578 32,000  Level FlightAware Transoceanic
Sat 11:02:00 AM 31.1198 -141.4241 242° Southwest 502 578 32,000  Level FlightAware Transoceanic
Sat 11:02:24 AM 31.0667 -141.5333 242° Southwest 515 593 32,000  Level Oakland Oceanic (ODAPS)
Sat 11:03:00 AM 31.0561 -141.5647 242° Southwest 502 578 32,000  Level FlightAware Transoceanic
Sat 11:04:00 AM 30.9922 -141.7052 242° Southwest 502 578 32,000  Level FlightAware Transoceanic
Sat 11:05:00 AM 30.9282 -141.8454 242° Southwest 502 578 32,000  Level FlightAware Transoceanic
Sat 11:06:00 AM 30.8640 -141.9855 242° Southwest 502 578 32,000  Level FlightAware Transoceanic
Sat 11:07:00 AM 30.7745 -142.1800 242° Southwest 515 593 32,000  Level FlightAware Transoceanic
Sat 11:08:00 AM 30.6628 -142.4146 242° Southwest 515 593 32,000  Level FlightAware Transoceanic
Sat 11:09:00 AM 30.5949 -142.5608 242° Southwest 515 593 32,000  Level FlightAware Transoceanic
Sat 11:10:00 AM 30.5268 -142.7068 242° Southwest 515 593 32,000  Level FlightAware Transoceanic
Sat 11:11:00 AM 30.4586 -142.8525 241° Southwest 515 593 32,000  Level FlightAware Transoceanic
Sat 11:12:00 AM 30.3902 -142.9980 241° Southwest 515 593 32,000  Level FlightAware Transoceanic
Sat 11:13:00 AM 30.3217 -143.1434 241° Southwest 515 593 32,000  Level FlightAware Transoceanic
Sat 11:14:00 AM 30.2530 -143.2885 241° Southwest 515 593 32,000  Level FlightAware Transoceanic
Sat 11:15:00 AM 30.1841 -143.4335 241° Southwest 515 593 32,000  Level FlightAware Transoceanic
Sat 11:16:00 AM 30.1151 -143.5782 241° Southwest 515 593 32,000  Level FlightAware Transoceanic
Sat 11:16:15 AM 30.1167 -143.5667 241° Southwest 515 593 32,000  Level Oakland Oceanic (ODAPS)
Sat 11:17:00 AM 30.0459 -143.7227 241° Southwest 515 593 32,000  Level FlightAware Transoceanic
Sat 11:18:00 AM 29.9765 -143.8671 241° Southwest 515 593 32,000  Level FlightAware Transoceanic
Sat 11:19:00 AM 29.9070 -144.0112 241° Southwest 515 593 32,000  Level FlightAware Transoceanic
Sat 11:20:00 AM 29.8374 -144.1551 241° Southwest 515 593 32,000  Level FlightAware Transoceanic
Sat 11:21:00 AM 29.7676 -144.2988 241° Southwest 515 593 32,000  Level FlightAware Transoceanic
Sat 11:22:00 AM 29.6990 -144.4331 241° Southwest 515 593 32,000  Level FlightAware Transoceanic
Sat 11:23:00 AM 29.6288 -144.5768 241° Southwest 515 593 32,000  Level FlightAware Transoceanic
Sat 11:24:00 AM 29.5585 -144.7203 241° Southwest 515 593 32,000  Level FlightAware Transoceanic
Sat 11:25:00 AM 29.4880 -144.8636 240° Southwest 515 593 32,000  Level FlightAware Transoceanic
Sat 11:26:00 AM 29.4174 -145.0067 240° Southwest 515 593 32,000  Level FlightAware Transoceanic
Sat 11:27:00 AM 29.3466 -145.1496 240° Southwest 515 593 32,000  Level FlightAware Transoceanic
Sat 11:28:00 AM 29.2757 -145.2924 240° Southwest 515 593 32,000  Level FlightAware Transoceanic
Sat 11:29:00 AM 29.2046 -145.4349 240° Southwest 515 593 32,000  Level FlightAware Transoceanic
Sat 11:30:00 AM 29.1334 -145.5772 240° Southwest 515 593 32,000  Level FlightAware Transoceanic
Sat 11:30:07 AM 29.1500 -145.5333 240° Southwest 505 581 32,000  Level Oakland Oceanic (ODAPS)
Sat 11:31:00 AM 29.0620 -145.7193 240° Southwest 515 593 32,000  Level FlightAware Transoceanic
Sat 11:32:00 AM 28.9905 -145.8612 240° Southwest 515 593 32,000  Level FlightAware Transoceanic
Sat 11:33:00 AM 28.9188 -146.0029 240° Southwest 515 593 32,000  Level FlightAware Transoceanic
Sat 11:34:00 AM 28.8470 -146.1445 240° Southwest 515 593 32,000  Level FlightAware Transoceanic
Sat 11:35:00 AM 28.7750 -146.2858 240° Southwest 515 593 32,000  Level FlightAware Transoceanic
Sat 11:36:00 AM 28.7382 -146.3509 240° Southwest 505 581 32,000  Level FlightAware Transoceanic
Sat 11:37:00 AM 28.6691 -146.4865 240° Southwest 505 581 32,000  Level FlightAware Transoceanic
Sat 11:38:00 AM 28.5998 -146.6219 240° Southwest 505 581 32,000  Level FlightAware Transoceanic
Sat 11:39:00 AM 28.5304 -146.7572 240° Southwest 505 581 32,000  Level FlightAware Transoceanic
Sat 11:40:00 AM 28.4609 -146.8923 240° Southwest 505 581 32,000  Level FlightAware Transoceanic
Sat 11:41:00 AM 28.3913 -147.0272 240° Southwest 505 581 32,000  Level FlightAware Transoceanic
Sat 11:42:00 AM 28.3215 -147.1620 239° Southwest 505 581 32,000  Level FlightAware Transoceanic
Sat 11:43:00 AM 28.2516 -147.2965 239° Southwest 505 581 32,000  Level FlightAware Transoceanic
Sat 11:44:00 AM 28.1815 -147.4309 239° Southwest 505 581 32,000 2,000 Level FlightAware Transoceanic
Sat 11:44:00 AM 28.1833 -147.4167 240° Southwest 486 559 34,000  Climbing Oakland Oceanic (ODAPS)
Sat 11:45:00 AM 28.1113 -147.5651 239° Southwest 505 581 32,000 -1,000 Descending FlightAware Transoceanic
Sat 11:46:00 AM 28.0410 -147.6991 239° Southwest 505 581 32,000  Level FlightAware Transoceanic
Sat 11:47:00 AM 27.9706 -147.8330 239° Southwest 505 581 32,000  Level FlightAware Transoceanic
Sat 11:48:00 AM 27.9000 -147.9667 239° Southwest 505 581 32,000 1,446 Level FlightAware Transoceanic
Sat 11:48:23 AM 27.9000 -147.9667 239° Southwest 487 560 34,000  Climbing Oakland Oceanic (ODAPS)
Sat 11:49:00 AM 27.8308 -148.0962 239° Southwest 505 581 32,000  Descending FlightAware Transoceanic
Sat 11:50:00 AM 27.7614 -148.2256 239° Southwest 486 559 34,000 1,000 Climbing FlightAware Transoceanic
Sat 11:51:00 AM 27.6919 -148.3548 239° Southwest 486 559 34,000  Level FlightAware Transoceanic
Sat 11:52:00 AM 27.6223 -148.4839 239° Southwest 486 559 34,000  Level FlightAware Transoceanic
Sat 11:53:00 AM 27.5526 -148.6128 239° Southwest 486 559 34,000  Level FlightAware Transoceanic
Sat 11:54:00 AM 27.4742 -148.7572 239° Southwest 487 560 34,000  Level FlightAware Transoceanic
Sat 11:55:00 AM 27.4028 -148.8884 238° Southwest 487 560 34,000  Level FlightAware Transoceanic
Sat 11:56:00 AM 27.3313 -149.0194 238° Southwest 487 560 34,000  Level FlightAware Transoceanic
Sat 11:57:00 AM 27.2597 -149.1502 238° Southwest 487 560 34,000  Level FlightAware Transoceanic
Sat 11:57:51 AM 27.2167 -149.2333 238° Southwest 484 557 34,000  Level Oakland Oceanic (ODAPS)
Sat 11:58:00 AM 27.1879 -149.2809 238° Southwest 487 560 34,000  Level FlightAware Transoceanic
Sat 11:59:00 AM 27.1160 -149.4114 238° Southwest 487 560 34,000  Level FlightAware Transoceanic
Sat 12:00:00 PM 27.0440 -149.5417 238° Southwest 487 560 34,000  Level FlightAware Transoceanic
Sat 12:01:00 PM 26.9719 -149.6718 238° Southwest 487 560 34,000  Level FlightAware Transoceanic
Sat 12:02:00 PM 26.8997 -149.8018 238° Southwest 487 560 34,000  Level FlightAware Transoceanic
Sat 12:03:00 PM 26.8273 -149.9317 238° Southwest 487 560 34,000  Level FlightAware Transoceanic
Sat 12:04:00 PM 26.7904 -150.0018 238° Southwest 484 557 34,000  Level FlightAware Transoceanic
Sat 12:05:00 PM 26.7189 -150.1293 238° Southwest 484 557 34,000  Level FlightAware Transoceanic
Sat 12:06:00 PM 26.6473 -150.2566 238° Southwest 484 557 34,000  Level FlightAware Transoceanic
Sat 12:07:00 PM 26.5757 -150.3838 238° Southwest 484 557 34,000  Level FlightAware Transoceanic
Sat 12:08:00 PM 26.5039 -150.5108 238° Southwest 484 557 34,000  Level FlightAware Transoceanic
Sat 12:09:00 PM 26.4320 -150.6377 238° Southwest 484 557 34,000  Level FlightAware Transoceanic
Sat 12:10:00 PM 26.3599 -150.7644 238° Southwest 484 557 34,000  Level FlightAware Transoceanic
Sat 12:11:00 PM 26.2878 -150.8910 238° Southwest 484 557 34,000  Level FlightAware Transoceanic
Sat 12:11:44 PM 26.2167 -151.0000 238° Southwest 482 555 34,000  Level Oakland Oceanic (ODAPS)
Sat 12:12:00 PM 26.2156 -151.0174 237° Southwest 484 557 34,000  Level FlightAware Transoceanic
Sat 12:13:00 PM 26.1432 -151.1436 237° Southwest 484 557 34,000  Level FlightAware Transoceanic
Sat 12:14:00 PM 26.0708 -151.2697 237° Southwest 484 557 34,000  Level FlightAware Transoceanic
Sat 12:15:00 PM 25.9982 -151.3956 237° Southwest 484 557 34,000  Level FlightAware Transoceanic
Sat 12:16:00 PM 25.9255 -151.5214 237° Southwest 484 557 34,000  Level FlightAware Transoceanic
Sat 12:17:00 PM 25.7970 -151.7312 237° Southwest 482 555 34,000  Level FlightAware Transoceanic
Sat 12:18:00 PM 25.7267 -151.8525 237° Southwest 482 555 34,000  Level FlightAware Transoceanic
Sat 12:19:00 PM 25.6562 -151.9737 237° Southwest 482 555 34,000  Level FlightAware Transoceanic
Sat 12:20:00 PM 25.5857 -152.0948 237° Southwest 482 555 34,000  Level FlightAware Transoceanic
Sat 12:21:00 PM 25.5151 -152.2157 237° Southwest 482 555 34,000  Level FlightAware Transoceanic
Sat 12:22:00 PM 25.4444 -152.3365 237° Southwest 482 555 34,000  Level FlightAware Transoceanic
Sat 12:23:00 PM 25.3736 -152.4571 237° Southwest 482 555 34,000  Level FlightAware Transoceanic
Sat 12:24:00 PM 25.3027 -152.5776 237° Southwest 482 555 34,000  Level FlightAware Transoceanic
Sat 12:25:00 PM 25.2317 -152.6980 237° Southwest 482 555 34,000  Level FlightAware Transoceanic
Sat 12:25:25 PM 25.2000 -152.7500 237° Southwest 489 563 34,000  Level Oakland Oceanic (ODAPS)
Sat 12:26:00 PM 25.1606 -152.8182 237° Southwest 482 555 34,000  Level FlightAware Transoceanic
Sat 12:27:00 PM 25.0894 -152.9383 237° Southwest 482 555 34,000  Level FlightAware Transoceanic
Sat 12:28:00 PM 25.0181 -153.0582 237° Southwest 482 555 34,000  Level FlightAware Transoceanic
Sat 12:29:00 PM 24.9467 -153.1780 237° Southwest 482 555 34,000  Level FlightAware Transoceanic
Sat 12:30:00 PM 24.8753 -153.2977 237° Southwest 482 555 34,000  Level FlightAware Transoceanic
Sat 12:31:00 PM 24.7519 -153.5027 237° Southwest 489 563 34,000  Level FlightAware Transoceanic
Sat 12:32:00 PM 24.6768 -153.6276 236° Southwest 489 563 34,000  Level FlightAware Transoceanic
Sat 12:33:00 PM 24.6017 -153.7524 236° Southwest 489 563 34,000  Level FlightAware Transoceanic
Sat 12:34:00 PM 24.5264 -153.8770 236° Southwest 489 563 34,000  Level FlightAware Transoceanic
Sat 12:35:00 PM 24.4510 -154.0015 236° Southwest 489 563 34,000  Level FlightAware Transoceanic
Sat 12:36:00 PM 24.3756 -154.1258 236° Southwest 489 563 34,000  Level FlightAware Transoceanic
Sat 12:37:00 PM 24.3000 -154.2500 236° Southwest 489 563 34,000  Level FlightAware Transoceanic
Sat 12:37:34 PM 24.2833 -154.2667 236° Southwest 480 552 34,000  Level Honolulu Center
Sat 12:38:00 PM 24.2307 -154.3627 236° Southwest 489 563 34,000  Level FlightAware Transoceanic
Sat 12:38:34 PM 24.2000 -154.3833 232° Southwest 470 541 34,000  Level Honolulu Center
Sat 12:39:00 PM 24.1613 -154.4753 236° Southwest 489 563 34,000  Level FlightAware Transoceanic
Sat 12:40:00 PM 24.0919 -154.5878 236° Southwest 489 563 34,000  Level FlightAware Transoceanic
Sat 12:40:15 PM 24.0500 -154.5667 228° Southwest 490 564 34,000  Level Honolulu Center
Sat 12:41:00 PM 24.0224 -154.7002 236° Southwest 489 563 34,000  Level FlightAware Transoceanic
Sat 12:41:15 PM 23.9667 -154.6667 228° Southwest 490 564 34,000  Level Honolulu Center
Sat 12:42:00 PM 23.9527 -154.8124 236° Southwest 489 563 34,000  Level FlightAware Transoceanic
Sat 12:42:15 PM 23.8667 -154.7833 227° Southwest 490 564 34,000  Level Honolulu Center
Sat 12:43:15 PM 23.7667 -154.8833 222° Southwest 490 564 34,000  Level Honolulu Center
Sat 12:44:15 PM 23.6833 -155.0000 232° Southwest 490 564 34,000  Level Honolulu Center
Sat 12:45:15 PM 23.5833 -155.1000 223° Southwest 490 564 34,000  Level Honolulu Center
Sat 12:46:15 PM 23.4833 -155.2167 227° Southwest 490 564 34,000  Level Honolulu Center
Sat 12:47:16 PM 23.3833 -155.3167 223° Southwest 480 552 34,000 -50 Level Honolulu Center
Sat 12:48:16 PM 23.3000 -155.4167 228° Southwest 490 564 33,900  Descending Honolulu Center
Sat 12:49:16 PM 23.2000 -155.5333 227° Southwest 490 564 34,000 50 Climbing Honolulu Center
Sat 12:50:16 PM 23.1000 -155.6333 223° Southwest 490 564 34,000  Level Honolulu Center
Sat 12:51:16 PM 23.0167 -155.7333 228° Southwest 480 552 34,000  Level Honolulu Center
Sat 12:52:16 PM 22.9167 -155.8500 227° Southwest 490 564 34,000  Level Honolulu Center
Sat 12:53:16 PM 22.8167 -155.9500 223° Southwest 490 564 34,000  Level Honolulu Center
Sat 12:54:16 PM 22.7333 -156.0500 228° Southwest 490 564 34,000  Level Honolulu Center
Sat 12:55:17 PM 22.6333 -156.1667 227° Southwest 480 552 34,000  Level Honolulu Center
Sat 12:56:17 PM 22.5333 -156.2667 223° Southwest 480 552 34,000  Level Honolulu Center
Sat 12:57:17 PM 22.4500 -156.3667 228° Southwest 490 564 34,000  Level Honolulu Center
Sat 12:58:17 PM 22.3500 -156.4667 223° Southwest 480 552 34,000  Level Honolulu Center
Sat 12:59:17 PM 22.2500 -156.5833 227° Southwest 490 564 34,000  Level Honolulu Center
Sat 01:00:17 PM 22.1667 -156.6833 228° Southwest 490 564 34,000 -50 Level Honolulu Center
Sat 01:01:17 PM 22.0667 -156.7833 223° Southwest 490 564 33,900 -1,339 Descending Honolulu Center
Sat 01:02:18 PM 21.9667 -156.9000 227° Southwest 470 541 31,300 -2,678 Descending Honolulu Center
Sat 01:03:18 PM 21.8667 -157.0000 223° Southwest 480 552 28,500 -2,750 Descending Honolulu Center
Sat 01:04:18 PM 21.7833 -157.1000 228° Southwest 470 541 25,800 -2,452 Descending Honolulu Center
Sat 01:09:52 PM 21.3330 -157.6150 228° Southwest 377 434 12,400 -2,311 Descending FlightAware ADS-B
Sat 01:10:37 PM 21.2900 -157.6730 231° Southwest 359 413 11,200 -1,457 Descending FlightAware ADS-B
Sat 01:11:02 PM 21.2720 -157.7180 247° West 344 396 10,700 -429 Descending FlightAware ADS-B
Sat 01:11:47 PM 21.2480 -157.7820 248° West 344 396 10,700 -943 Level FlightAware ADS-B
Sat 01:12:12 PM 21.2330 -157.8170 245° Southwest 344 396 9,600 -1,320 Descending FlightAware ADS-B
Sat 01:12:37 PM 21.2190 -157.8530 247° West 344 396 9,600 -1,878 Level FlightAware ADS-B
Sat 01:14:07 PM 21.1780 -157.9560 247° West 260 299 6,000 -2,400 Descending FlightAware ADS-B

Login

Don't have an account? Register now (free) for customized features, flight alerts, and more!